Terminal Aerodrome Forecast
Issued by NWS

Home | Current Version | Previous Version | Text Only | Print | Product List | Glossary On
Versions: 1 2 3 4 5 6 7 8 9 10 11 12
000
FTUS43 KDTX 061123
TAFMBS
TAF
KMBS 061123Z 0612/0712 20007KT P6SM SCT250
     FM061600 21012KT P6SM BKN250
     FM070600 22014KT P6SM SCT040 BKN060 OVC150=

USA.gov is the U.S. government's official web portal to all federal, state and local government web resources and services.